createdAt,value
2019-02-26T00:02:02.710Z,54.60
2019-02-26T00:04:35.036Z,58.03
2019-02-26T00:07:06.067Z,56.67
2019-02-26T00:09:36.823Z,57.50
2019-02-26T00:12:07.495Z,59.33
2019-02-26T00:14:38.189Z,49.03
2019-02-26T00:17:10.747Z,59.93
2019-02-26T00:19:41.251Z,53.67
2019-02-26T00:22:13.703Z,52.90
2019-02-26T00:24:44.799Z,50.40
2019-02-26T00:27:16.757Z,56.43
2019-02-26T00:29:49.211Z,55.13
2019-02-26T00:32:19.720Z,55.47
2019-02-26T00:34:50.458Z,51.00
2019-02-26T00:37:22.218Z,57.60
2019-02-26T00:39:54.182Z,53.97
2019-02-26T00:42:26.429Z,55.97
2019-02-26T00:45:00.130Z,50.10
2019-02-26T00:47:32.175Z,58.00
2019-02-26T00:50:02.572Z,48.97
2019-02-26T00:52:34.815Z,42.90
2019-02-26T00:55:07.118Z,49.60
2019-02-26T00:57:40.676Z,46.40
2019-02-26T01:00:15.148Z,45.03
2019-02-26T01:02:45.903Z,47.60
2019-02-26T01:05:17.826Z,49.47
2019-02-26T01:07:50.188Z,48.03
2019-02-26T01:10:23.391Z,47.53
2019-02-26T01:12:53.543Z,47.30
2019-02-26T01:15:24.385Z,45.93
2019-02-26T01:17:57.171Z,45.50
2019-02-26T01:20:29.646Z,44.07
2019-02-26T01:23:00.688Z,44.83
2019-02-26T01:25:31.885Z,46.07
2019-02-26T01:28:03.408Z,47.07
2019-02-26T01:30:36.049Z,45.87
2019-02-26T01:33:08.050Z,49.13
2019-02-26T01:35:38.794Z,46.77
2019-02-26T01:38:09.475Z,51.00
2019-02-26T01:40:43.636Z,42.73
2019-02-26T01:43:12.510Z,46.10
2019-02-26T01:45:44.016Z,47.43
2019-02-26T01:48:18.155Z,49.97
2019-02-26T01:50:48.374Z,45.87
2019-02-26T01:53:19.795Z,46.43
2019-02-26T01:55:52.084Z,47.87
2019-02-26T01:58:22.915Z,46.80
2019-02-26T02:00:55.468Z,48.23
2019-02-26T02:03:27.812Z,47.33
2019-02-26T02:05:58.441Z,48.63
2019-02-26T02:08:29.097Z,50.80
2019-02-26T02:11:01.846Z,46.23
2019-02-26T02:13:33.133Z,48.97
2019-02-26T02:16:06.715Z,61.93
2019-02-26T02:18:38.510Z,48.90
2019-02-26T02:21:09.452Z,56.13
2019-02-26T02:23:42.011Z,56.03
2019-02-26T02:26:13.918Z,53.80
2019-02-26T02:28:45.632Z,48.33
2019-02-26T02:31:16.297Z,54.57
2019-02-26T02:33:46.886Z,49.00
2019-02-26T02:36:20.328Z,59.37
2019-02-26T02:38:49.948Z,54.00
2019-02-26T02:41:20.619Z,50.33
2019-02-26T02:43:51.248Z,56.23
2019-02-26T02:46:21.898Z,53.70
2019-02-26T02:48:52.566Z,50.67
2019-02-26T02:51:25.536Z,52.50
2019-02-26T02:53:57.319Z,56.13
2019-02-26T02:56:27.993Z,56.67
2019-02-26T02:58:58.722Z,55.70
2019-02-26T03:01:30.524Z,49.20
2019-02-26T03:04:01.318Z,57.07
2019-02-26T03:06:32.609Z,53.70
2019-02-26T03:09:06.868Z,52.43
2019-02-26T03:11:40.994Z,52.80
2019-02-26T03:14:13.359Z,51.23
2019-02-26T03:16:45.016Z,50.80
2019-02-26T03:19:17.063Z,57.60
2019-02-26T03:21:49.667Z,52.73
2019-02-26T03:24:22.791Z,58.23
2019-02-26T03:26:52.620Z,57.90
2019-02-26T03:29:23.282Z,54.10
2019-02-26T03:31:55.436Z,48.43
2019-02-26T03:34:26.474Z,52.93
2019-02-26T03:36:59.858Z,51.97
2019-02-26T03:39:30.084Z,57.80
2019-02-26T03:42:00.820Z,54.93
2019-02-26T03:44:31.476Z,52.03
2019-02-26T03:47:02.179Z,53.87
2019-02-26T03:49:33.481Z,51.47
2019-02-26T03:52:04.235Z,61.73
2019-02-26T03:54:37.274Z,51.33
2019-02-26T03:57:09.026Z,54.03
2019-02-26T03:59:39.666Z,52.27
2019-02-26T04:02:11.867Z,53.13
2019-02-26T04:04:42.858Z,51.90
2019-02-26T04:07:13.519Z,55.73
2019-02-26T04:09:46.666Z,53.73
2019-02-26T04:12:18.455Z,53.83
2019-02-26T04:14:49.821Z,68.27
2019-02-26T04:17:23.172Z,57.70
2019-02-26T04:19:52.903Z,53.10
2019-02-26T04:22:34.545Z,52.33
2019-02-26T04:25:31.354Z,58.30
2019-02-26T04:28:33.027Z,74.67
2019-02-26T04:32:12.110Z,207.43
2019-02-26T04:35:02.984Z,118.47
2019-02-26T04:38:55.657Z,200.80
2019-02-26T04:41:53.136Z,148.78
2019-02-26T04:45:19.518Z,97.97
2019-02-26T04:47:52.588Z,76.30
2019-02-26T04:50:26.176Z,60.77
2019-02-26T04:52:59.135Z,54.83
2019-02-26T04:55:29.763Z,56.73
2019-02-26T04:58:01.055Z,49.67
2019-02-26T05:00:36.041Z,52.83
2019-02-26T05:03:07.901Z,50.03
2019-02-26T05:05:37.880Z,50.73
2019-02-26T05:08:10.477Z,54.70
2019-02-26T05:10:41.373Z,51.23
2019-02-26T05:13:17.004Z,52.77
2019-02-26T05:15:47.686Z,50.97
2019-02-26T05:18:20.485Z,56.27
2019-02-26T05:20:51.262Z,55.83
2019-02-26T05:23:23.331Z,55.43
2019-02-26T05:25:59.851Z,52.47
2019-02-26T05:28:29.899Z,48.53
2019-02-26T05:31:03.633Z,55.80
2019-02-26T05:33:34.481Z,50.80
2019-02-26T05:36:06.147Z,53.53
2019-02-26T05:38:37.760Z,52.87
2019-02-26T05:41:08.416Z,55.40
2019-02-26T05:43:39.351Z,51.50
2019-02-26T05:46:10.107Z,52.00
2019-02-26T05:48:43.001Z,57.57
2019-02-26T05:51:15.539Z,54.33
2019-02-26T05:53:46.515Z,54.00
2019-02-26T05:56:20.159Z,56.53
2019-02-26T05:58:50.363Z,52.40
2019-02-26T06:01:24.313Z,54.00
2019-02-26T06:03:54.144Z,54.97
2019-02-26T06:06:24.808Z,54.20
2019-02-26T06:08:57.378Z,52.63
2019-02-26T06:11:30.857Z,52.50
2019-02-26T06:14:02.776Z,50.60
2019-02-26T06:16:33.458Z,51.03
2019-02-26T06:19:06.034Z,52.07
2019-02-26T06:21:39.635Z,50.83
2019-02-26T06:24:09.513Z,54.73
2019-02-26T06:26:41.324Z,51.90
2019-02-26T06:29:12.886Z,51.57
2019-02-26T06:31:45.089Z,55.37
2019-02-26T06:34:16.737Z,54.23
2019-02-26T06:36:49.285Z,52.43
2019-02-26T06:39:22.600Z,53.73
2019-02-26T06:41:54.128Z,53.63
2019-02-26T06:44:27.621Z,55.90
2019-02-26T06:47:00.242Z,55.67
2019-02-26T06:49:31.733Z,51.90
2019-02-26T06:52:02.561Z,57.47
2019-02-26T06:54:33.208Z,52.03
2019-02-26T06:57:04.107Z,51.93
2019-02-26T06:59:36.794Z,55.67
2019-02-26T07:02:08.827Z,49.17
2019-02-26T07:04:39.691Z,54.33
2019-02-26T07:07:14.147Z,51.33
2019-02-26T07:09:43.962Z,48.50
2019-02-26T07:12:16.855Z,55.43
2019-02-26T07:14:48.423Z,50.07
2019-02-26T07:17:20.594Z,52.17
2019-02-26T07:19:53.821Z,53.20
2019-02-26T07:22:23.786Z,49.27
2019-02-26T07:24:54.470Z,47.27
2019-02-26T07:27:28.852Z,52.93
2019-02-26T07:29:59.864Z,51.90
2019-02-26T07:32:30.494Z,53.33
2019-02-26T07:35:01.189Z,55.97
2019-02-26T07:37:35.302Z,53.17
2019-02-26T07:40:08.144Z,53.73
2019-02-26T07:42:43.753Z,55.50
2019-02-26T07:45:19.683Z,51.87
2019-02-26T07:47:51.450Z,54.83
2019-02-26T07:50:22.713Z,52.90
2019-02-26T07:52:55.144Z,53.50
2019-02-26T07:55:27.570Z,49.53
2019-02-26T07:57:58.473Z,51.87
2019-02-26T08:00:30.566Z,51.60
2019-02-26T08:03:02.217Z,53.23
2019-02-26T08:05:34.382Z,53.10
2019-02-26T08:08:05.279Z,51.70
2019-02-26T08:10:39.419Z,56.43
2019-02-26T08:13:09.043Z,49.33
2019-02-26T08:15:40.939Z,53.63
2019-02-26T08:18:11.567Z,55.47
2019-02-26T08:20:42.421Z,56.70
2019-02-26T08:23:14.781Z,51.40
2019-02-26T08:25:45.520Z,53.77
2019-02-26T08:28:17.940Z,52.50
2019-02-26T08:30:49.907Z,51.23
2019-02-26T08:33:21.190Z,52.17
2019-02-26T08:35:55.506Z,57.73
2019-02-26T08:38:29.261Z,53.40
2019-02-26T08:40:57.276Z,56.90
2019-02-26T08:43:28.392Z,50.93
2019-02-26T08:45:59.106Z,57.97
2019-02-26T08:48:29.726Z,56.33
2019-02-26T08:51:03.067Z,53.30
2019-02-26T08:53:32.896Z,52.90
2019-02-26T08:56:04.137Z,59.93
2019-02-26T08:58:35.256Z,57.53
2019-02-26T09:01:06.007Z,62.23
2019-02-26T09:03:40.806Z,60.87
2019-02-26T09:06:13.345Z,60.67
2019-02-26T09:08:43.157Z,59.77
2019-02-26T09:11:14.235Z,58.63
2019-02-26T09:13:44.977Z,66.43
2019-02-26T09:16:15.594Z,60.23
2019-02-26T09:18:46.533Z,64.27
2019-02-26T09:21:18.118Z,58.03
2019-02-26T09:23:52.778Z,57.53
2019-02-26T09:26:21.986Z,60.47
2019-02-26T09:28:54.867Z,63.67
2019-02-26T09:31:25.382Z,58.63
2019-02-26T09:33:56.141Z,62.80
2019-02-26T09:36:29.317Z,61.07
2019-02-26T09:38:59.595Z,63.43
2019-02-26T09:41:33.808Z,64.43
2019-02-26T09:44:06.574Z,62.97
2019-02-26T09:46:38.816Z,66.57
2019-02-26T09:49:12.335Z,65.00
2019-02-26T09:51:42.278Z,65.60
2019-02-26T09:54:17.832Z,64.30
2019-02-26T09:56:48.579Z,67.53
2019-02-26T09:59:19.295Z,64.97
2019-02-26T10:01:49.976Z,62.83
2019-02-26T10:04:22.110Z,65.83
2019-02-26T10:06:53.024Z,64.23
2019-02-26T10:09:23.666Z,66.93
2019-02-26T10:11:54.332Z,65.90
2019-02-26T10:14:30.936Z,67.03
2019-02-26T10:17:01.275Z,67.27
2019-02-26T10:19:35.640Z,70.23
2019-02-26T10:22:09.812Z,64.80
2019-02-26T10:24:40.321Z,65.53
2019-02-26T10:27:12.138Z,63.47
2019-02-26T10:29:45.037Z,61.23
2019-02-26T10:32:16.082Z,63.43
2019-02-26T10:34:46.777Z,61.50
2019-02-26T10:37:17.467Z,61.67
2019-02-26T10:39:49.837Z,59.80
2019-02-26T10:42:20.534Z,55.10
2019-02-26T10:44:51.214Z,63.97
2019-02-26T10:47:22.887Z,61.80
2019-02-26T10:49:56.333Z,61.40
2019-02-26T10:52:28.691Z,54.73
2019-02-26T10:54:59.082Z,52.50
2019-02-26T10:57:31.066Z,57.00
2019-02-26T11:00:02.522Z,56.27
2019-02-26T11:02:35.150Z,60.00
2019-02-26T11:05:08.553Z,52.47
2019-02-26T11:07:40.081Z,56.10
2019-02-26T11:10:11.936Z,57.60
2019-02-26T11:12:45.698Z,57.27
2019-02-26T11:15:16.682Z,54.03
2019-02-26T11:17:48.025Z,55.33
2019-02-26T11:20:21.857Z,55.27
2019-02-26T11:22:52.282Z,59.77
2019-02-26T11:25:24.915Z,58.07
2019-02-26T11:27:55.792Z,58.90
2019-02-26T11:30:29.524Z,53.70
2019-02-26T11:33:02.526Z,58.10
2019-02-26T11:35:31.674Z,52.47
2019-02-26T11:38:02.417Z,60.00
2019-02-26T11:40:34.325Z,54.93
2019-02-26T11:43:11.521Z,58.47
2019-02-26T11:45:40.024Z,61.57
2019-02-26T11:48:11.317Z,55.57
2019-02-26T11:50:44.534Z,55.13
2019-02-26T11:53:14.509Z,54.23
2019-02-26T11:55:45.294Z,61.57
2019-02-26T11:58:18.486Z,57.57
2019-02-26T12:00:56.940Z,61.30
2019-02-26T12:03:28.053Z,67.37
2019-02-26T12:06:01.976Z,56.63
2019-02-26T12:08:31.793Z,53.17
2019-02-26T12:11:04.061Z,58.13
2019-02-26T12:13:35.516Z,56.10
2019-02-26T12:16:06.150Z,58.47
2019-02-26T12:18:39.137Z,57.83
2019-02-26T12:21:10.570Z,53.80
2019-02-26T12:23:44.591Z,57.73
2019-02-26T12:26:17.275Z,50.97
2019-02-26T12:28:47.415Z,56.30
2019-02-26T12:31:18.124Z,51.33
2019-02-26T12:33:48.893Z,55.17
2019-02-26T12:36:21.252Z,52.77
2019-02-26T12:38:53.744Z,57.17
2019-02-26T12:41:24.639Z,49.93
2019-02-26T12:43:58.777Z,54.20
2019-02-26T12:46:30.925Z,58.73
2019-02-26T12:49:03.045Z,51.83
2019-02-26T12:51:35.413Z,53.77
2019-02-26T12:54:06.328Z,54.20
2019-02-26T12:56:38.392Z,54.67
2019-02-26T12:59:11.596Z,51.83
2019-02-26T13:01:45.839Z,53.17
2019-02-26T13:04:19.614Z,51.93
2019-02-26T13:06:48.488Z,52.13
2019-02-26T13:09:19.865Z,56.47
2019-02-26T13:12:01.066Z,55.13
2019-02-26T13:14:23.393Z,50.27
2019-02-26T13:16:57.078Z,50.53
2019-02-26T13:19:32.689Z,51.77
2019-02-26T13:22:05.149Z,50.00
2019-02-26T13:24:31.388Z,53.17
2019-02-26T13:27:02.053Z,51.37
2019-02-26T13:29:32.723Z,52.03
2019-02-26T13:32:03.442Z,60.20
2019-02-26T13:34:34.841Z,52.53
2019-02-26T13:37:05.589Z,50.33
2019-02-26T13:39:38.669Z,54.10
2019-02-26T13:42:13.129Z,51.70
2019-02-26T13:44:41.558Z,51.40
2019-02-26T13:47:12.366Z,48.17
2019-02-26T13:49:43.756Z,48.37
2019-02-26T13:52:14.399Z,52.33
2019-02-26T13:54:46.264Z,49.63
2019-02-26T13:57:16.940Z,48.27
2019-02-26T13:59:47.789Z,45.07
2019-02-26T14:02:18.697Z,52.07
2019-02-26T14:04:49.555Z,49.50
2019-02-26T14:07:20.259Z,49.80
2019-02-26T14:09:50.915Z,53.20
2019-02-26T14:12:21.676Z,46.43
2019-02-26T14:14:52.366Z,46.00
2019-02-26T14:17:23.032Z,49.80
2019-02-26T14:19:53.791Z,48.40
2019-02-26T14:22:24.609Z,48.50
2019-02-26T14:24:55.269Z,50.80
2019-02-26T14:27:26.030Z,52.43
2019-02-26T14:29:56.704Z,52.87
2019-02-26T14:32:27.672Z,50.43
2019-02-26T14:34:59.624Z,53.77
2019-02-26T14:37:30.795Z,52.57
2019-02-26T14:40:01.603Z,48.07
2019-02-26T14:42:32.415Z,52.07
2019-02-26T14:45:03.225Z,45.60
2019-02-26T14:47:33.859Z,49.53
2019-02-26T14:50:05.155Z,48.20
2019-02-26T14:52:36.037Z,50.80
2019-02-26T14:55:06.936Z,46.07
2019-02-26T14:57:38.688Z,49.87
2019-02-26T15:00:15.385Z,43.43
2019-02-26T15:02:46.674Z,44.37
2019-02-26T15:05:17.545Z,50.60
2019-02-26T15:07:48.723Z,48.63
2019-02-26T15:10:20.522Z,57.27
2019-02-26T15:12:51.456Z,46.90
2019-02-26T15:15:22.103Z,49.63
2019-02-26T15:17:52.952Z,48.27
2019-02-26T15:20:23.776Z,51.13
2019-02-26T15:22:54.575Z,50.87
2019-02-26T15:25:25.307Z,48.73
2019-02-26T15:28:04.565Z,55.90
2019-02-26T15:30:28.778Z,48.03
2019-02-26T15:32:59.472Z,54.93
2019-02-26T15:35:30.697Z,49.53
2019-02-26T15:38:01.413Z,48.97
2019-02-26T15:40:32.819Z,45.57
2019-02-26T15:43:03.807Z,54.13
2019-02-26T15:45:34.853Z,50.17
2019-02-26T15:48:05.569Z,51.93
2019-02-26T15:50:37.699Z,50.20
2019-02-26T15:53:08.651Z,52.37
2019-02-26T15:55:39.411Z,51.30
2019-02-26T15:58:11.590Z,48.93
2019-02-26T16:00:43.401Z,52.73
2019-02-26T16:03:14.571Z,48.17
2019-02-26T16:05:45.380Z,53.77
2019-02-26T16:08:16.141Z,52.53
2019-02-26T16:10:47.202Z,53.37
2019-02-26T16:13:19.543Z,50.27
2019-02-26T16:15:50.813Z,49.17
2019-02-26T16:18:21.775Z,49.37
2019-02-26T16:20:52.565Z,55.33
2019-02-26T16:23:23.699Z,49.77
2019-02-26T16:25:55.631Z,48.77
2019-02-26T16:28:27.290Z,55.10
2019-02-26T16:30:58.837Z,58.17
2019-02-26T16:33:40.340Z,52.03
2019-02-26T16:36:21.125Z,53.60
2019-02-26T16:39:02.163Z,58.97
2019-02-26T16:41:43.696Z,55.27
2019-02-26T16:44:14.823Z,54.30
2019-02-26T16:46:45.519Z,58.93
2019-02-26T16:49:16.278Z,59.67
2019-02-26T16:51:46.941Z,57.60
2019-02-26T16:54:17.635Z,60.27
2019-02-26T16:56:49.190Z,62.47
2019-02-26T16:59:19.880Z,56.53
2019-02-26T17:01:52.588Z,66.90
2019-02-26T17:04:24.626Z,63.40
2019-02-26T17:06:56.075Z,60.40
2019-02-26T17:09:26.818Z,68.03
2019-02-26T17:11:57.779Z,74.93
2019-02-26T17:14:28.428Z,62.37
2019-02-26T17:17:01.599Z,66.53
2019-02-26T17:19:33.190Z,62.00
2019-02-26T17:22:04.569Z,61.53
2019-02-26T17:24:36.025Z,61.37
2019-02-26T17:27:06.699Z,70.80
2019-02-26T17:29:37.363Z,63.97
2019-02-26T17:32:08.018Z,71.47
2019-02-26T17:34:39.073Z,75.90
2019-02-26T17:37:09.712Z,62.07
2019-02-26T17:39:41.568Z,68.20
2019-02-26T17:42:12.221Z,63.73
2019-02-26T17:44:43.931Z,60.53
2019-02-26T17:47:14.614Z,66.43
2019-02-26T17:49:45.552Z,66.17
2019-02-26T17:52:16.322Z,70.63
2019-02-26T17:54:47.022Z,71.23
2019-02-26T17:57:17.769Z,73.13
2019-02-26T17:59:48.470Z,66.97
2019-02-26T18:02:19.237Z,57.17
2019-02-26T18:04:49.898Z,56.20
2019-02-26T18:07:20.643Z,59.83
2019-02-26T18:09:51.416Z,67.30
2019-02-26T18:12:22.094Z,57.87
2019-02-26T18:14:52.830Z,60.57
2019-02-26T18:17:23.521Z,66.70
2019-02-26T18:19:55.047Z,69.20
2019-02-26T18:22:25.839Z,65.00
2019-02-26T18:24:56.673Z,68.30
2019-02-26T18:27:27.756Z,70.90
2019-02-26T18:30:00.232Z,65.53
2019-02-26T18:32:30.942Z,66.47
2019-02-26T18:35:03.337Z,65.90
2019-02-26T18:37:34.582Z,64.53
2019-02-26T18:40:07.486Z,73.67
2019-02-26T18:42:41.167Z,70.83
2019-02-26T18:45:17.061Z,79.97
2019-02-26T18:47:47.862Z,80.13
2019-02-26T18:50:19.386Z,68.17
2019-02-26T18:53:01.379Z,84.13
2019-02-26T18:55:33.335Z,77.97
2019-02-26T18:58:04.458Z,66.37
2019-02-26T19:00:35.455Z,73.47
2019-02-26T19:03:09.377Z,61.73
2019-02-26T19:05:39.368Z,67.93
2019-02-26T19:08:10.187Z,71.73
2019-02-26T19:10:40.938Z,76.23
2019-02-26T19:13:11.647Z,79.07
2019-02-26T19:15:47.545Z,82.43
2019-02-26T19:18:16.107Z,82.43
2019-02-26T19:20:48.880Z,150.23
2019-02-26T19:23:19.201Z,101.40
2019-02-26T19:25:49.897Z,83.50
2019-02-26T19:28:20.617Z,81.97
2019-02-26T19:30:51.421Z,78.97
2019-02-26T19:33:22.545Z,76.13
2019-02-26T19:35:53.354Z,73.40
2019-02-26T19:38:27.264Z,80.03
2019-02-26T19:40:57.911Z,79.47
2019-02-26T19:43:28.926Z,83.00
2019-02-26T19:46:02.189Z,88.00
2019-02-26T19:48:34.026Z,80.07
2019-02-26T19:51:05.230Z,93.67
2019-02-26T19:53:36.041Z,87.50
2019-02-26T19:56:07.741Z,84.67
2019-02-26T19:58:40.807Z,85.30
2019-02-26T20:01:11.325Z,84.40
2019-02-26T20:03:43.262Z,84.30
2019-02-26T20:06:14.117Z,87.53
2019-02-26T20:08:47.430Z,74.87
2019-02-26T20:11:18.106Z,69.77
2019-02-26T20:13:53.758Z,80.33
2019-02-26T20:16:27.636Z,85.70
2019-02-26T20:18:59.202Z,83.30
2019-02-26T20:21:30.957Z,84.70
2019-02-26T20:24:01.707Z,84.53
2019-02-26T20:26:32.335Z,91.10
2019-02-26T20:29:03.133Z,87.73
2019-02-26T20:31:35.454Z,77.93
2019-02-26T20:34:06.649Z,83.13
2019-02-26T20:36:38.959Z,78.43
2019-02-26T20:39:10.433Z,75.87
2019-02-26T20:41:41.283Z,75.70
2019-02-26T20:44:11.988Z,75.33
2019-02-26T20:46:44.348Z,78.90
2019-02-26T20:49:15.108Z,87.03
2019-02-26T20:51:45.908Z,101.70
2019-02-26T20:54:16.737Z,97.93
2019-02-26T20:56:47.526Z,102.97
2019-02-26T20:59:18.582Z,92.00
2019-02-26T21:01:49.657Z,88.43
2019-02-26T21:04:20.610Z,90.37
2019-02-26T21:06:51.638Z,79.17
2019-02-26T21:09:22.437Z,82.70
2019-02-26T21:11:53.588Z,94.03
2019-02-26T21:14:25.821Z,95.40
2019-02-26T21:16:56.539Z,91.60
2019-02-26T21:19:27.190Z,95.20
2019-02-26T21:21:57.862Z,93.23
2019-02-26T21:24:28.642Z,84.20
2019-02-26T21:27:01.294Z,90.93
2019-02-26T21:29:32.597Z,84.33
2019-02-26T21:32:04.041Z,76.87
2019-02-26T21:34:35.567Z,81.43
2019-02-26T21:37:06.298Z,78.97
2019-02-26T21:39:37.576Z,82.37
2019-02-26T21:42:18.039Z,83.77
2019-02-26T21:45:01.645Z,77.70
2019-02-26T21:47:41.133Z,90.83
2019-02-26T21:50:14.539Z,101.33
2019-02-26T21:52:59.078Z,107.93
2019-02-26T21:55:17.975Z,101.77
2019-02-26T21:57:49.495Z,115.03
2019-02-26T22:00:29.293Z,117.37
2019-02-26T22:03:00.076Z,122.67
2019-02-26T22:05:30.997Z,104.07
2019-02-26T22:08:01.737Z,97.93
2019-02-26T22:10:33.660Z,125.07
2019-02-26T22:13:04.973Z,131.70
2019-02-26T22:15:36.245Z,96.20
2019-02-26T22:18:07.101Z,91.50
2019-02-26T22:20:37.784Z,98.73
2019-02-26T22:23:10.514Z,124.07
2019-02-26T22:25:41.159Z,87.43
2019-02-26T22:28:12.494Z,74.63
2019-02-26T22:30:43.975Z,68.57
2019-02-26T22:33:14.976Z,67.33
2019-02-26T22:35:46.615Z,67.67
2019-02-26T22:38:17.350Z,66.73
2019-02-26T22:40:48.143Z,59.57
2019-02-26T22:43:18.882Z,84.10
2019-02-26T22:45:49.500Z,64.90
2019-02-26T22:48:20.202Z,74.70
2019-02-26T22:50:50.907Z,81.03
2019-02-26T22:53:21.636Z,133.60
2019-02-26T22:55:52.321Z,141.77
2019-02-26T22:58:23.016Z,108.20
2019-02-26T23:01:30.334Z,87.43
2019-02-26T23:03:56.151Z,76.43
2019-02-26T23:06:29.340Z,124.40
2019-02-26T23:08:59.361Z,118.37
2019-02-26T23:11:32.487Z,83.30
2019-02-26T23:14:05.009Z,85.97
2019-02-26T23:16:37.236Z,76.07
2019-02-26T23:19:08.437Z,73.30
2019-02-26T23:21:41.584Z,127.80
2019-02-26T23:24:12.543Z,83.77
2019-02-26T23:26:43.296Z,70.80
2019-02-26T23:29:14.564Z,80.30
2019-02-26T23:31:45.289Z,98.97
2019-02-26T23:34:16.461Z,112.37
2019-02-26T23:36:47.138Z,152.30
2019-02-26T23:39:18.755Z,143.47
2019-02-26T23:41:49.430Z,95.20
2019-02-26T23:44:20.070Z,86.27
2019-02-26T23:46:50.745Z,87.40
2019-02-26T23:49:21.570Z,80.30
2019-02-26T23:51:53.712Z,71.60
2019-02-26T23:54:27.751Z,71.37
2019-02-26T23:56:58.389Z,88.03
2019-02-26T23:59:29.047Z,71.37
